createdAt,value
2018-12-30T00:00:45.487Z,3.20
2018-12-30T00:03:27.694Z,2.70
2018-12-30T00:06:10.165Z,2.87
2018-12-30T00:08:53.165Z,3.27
2018-12-30T00:11:34.714Z,3.30
2018-12-30T00:14:16.778Z,2.67
2018-12-30T00:16:58.639Z,2.60
2018-12-30T00:19:42.706Z,2.87
2018-12-30T00:22:24.004Z,2.60
2018-12-30T00:25:06.894Z,2.80
2018-12-30T00:27:48.772Z,2.70
2018-12-30T00:30:30.119Z,2.83
2018-12-30T00:33:12.342Z,2.50
2018-12-30T00:35:54.224Z,2.47
2018-12-30T00:38:35.889Z,2.53
2018-12-30T00:41:18.795Z,2.67
2018-12-30T00:44:00.838Z,2.70
2018-12-30T00:46:41.445Z,2.73
2018-12-30T00:49:23.354Z,2.33
2018-12-30T00:52:05.066Z,2.60
2018-12-30T00:54:46.431Z,2.87
2018-12-30T00:57:28.163Z,2.53
2018-12-30T01:00:09.789Z,2.50
2018-12-30T01:02:52.104Z,2.70
2018-12-30T01:05:33.995Z,2.63
2018-12-30T01:08:16.046Z,2.43
2018-12-30T01:10:57.420Z,2.73
2018-12-30T01:13:39.506Z,2.50
2018-12-30T01:16:21.481Z,2.47
2018-12-30T01:19:03.250Z,2.90
2018-12-30T01:21:44.791Z,2.60
2018-12-30T01:24:26.796Z,2.63
2018-12-30T01:27:08.155Z,2.23
2018-12-30T01:29:49.654Z,2.57
2018-12-30T01:32:31.582Z,2.40
2018-12-30T01:35:14.222Z,2.20
2018-12-30T01:37:55.881Z,2.53
2018-12-30T01:40:37.376Z,2.33
2018-12-30T01:43:19.008Z,2.37
2018-12-30T01:46:00.759Z,2.20
2018-12-30T01:48:42.932Z,2.37
2018-12-30T01:51:24.351Z,2.37
2018-12-30T01:54:05.731Z,2.30
2018-12-30T01:56:47.490Z,2.30
2018-12-30T01:59:29.798Z,2.47
2018-12-30T02:02:11.376Z,2.37
2018-12-30T02:04:53.482Z,2.10
2018-12-30T02:07:35.762Z,2.20
2018-12-30T02:10:18.336Z,2.30
2018-12-30T02:13:00.174Z,2.23
2018-12-30T02:15:41.556Z,2.07
2018-12-30T02:18:23.650Z,2.13
2018-12-30T02:21:05.427Z,2.20
2018-12-30T02:23:47.215Z,1.80
2018-12-30T02:26:28.866Z,2.10
2018-12-30T02:29:10.529Z,2.10
2018-12-30T02:31:52.696Z,2.07
2018-12-30T02:34:34.478Z,2.30
2018-12-30T02:37:16.076Z,2.27
2018-12-30T02:39:57.555Z,2.07
2018-12-30T02:42:39.206Z,2.00
2018-12-30T02:45:21.625Z,1.70
2018-12-30T02:48:03.910Z,1.93
2018-12-30T02:50:46.034Z,2.00
2018-12-30T02:53:27.474Z,2.03
2018-12-30T02:56:09.565Z,1.97
2018-12-30T02:58:51.195Z,2.30
2018-12-30T03:01:32.669Z,2.07
2018-12-30T03:04:14.043Z,1.73
2018-12-30T03:06:55.911Z,1.60
2018-12-30T03:09:37.246Z,2.27
2018-12-30T03:12:18.867Z,1.77
2018-12-30T03:15:00.459Z,1.97
2018-12-30T03:17:42.632Z,1.83
2018-12-30T03:20:24.182Z,1.97
2018-12-30T03:23:06.387Z,1.70
2018-12-30T03:25:48.180Z,2.10
2018-12-30T03:28:29.702Z,2.10
2018-12-30T03:31:11.093Z,1.90
2018-12-30T03:33:52.593Z,2.20
2018-12-30T03:36:34.172Z,1.93
2018-12-30T03:39:15.768Z,1.90
2018-12-30T03:41:57.371Z,1.80
2018-12-30T03:44:38.678Z,2.10
2018-12-30T03:47:20.423Z,2.10
2018-12-30T03:50:02.223Z,1.80
2018-12-30T03:52:44.132Z,1.77
2018-12-30T03:55:26.547Z,1.87
2018-12-30T03:58:07.899Z,1.80
2018-12-30T04:00:50.095Z,1.80
2018-12-30T04:03:31.635Z,2.00
2018-12-30T04:06:12.503Z,1.73
2018-12-30T04:08:54.720Z,1.80
2018-12-30T04:11:36.776Z,2.00
2018-12-30T04:14:18.271Z,1.83
2018-12-30T04:17:00.127Z,1.60
2018-12-30T04:19:40.142Z,1.70
2018-12-30T04:22:22.318Z,1.80
2018-12-30T04:25:03.734Z,1.43
2018-12-30T04:27:45.623Z,2.00
2018-12-30T04:30:27.564Z,1.50
2018-12-30T04:33:09.254Z,1.87
2018-12-30T04:35:50.592Z,2.00
2018-12-30T04:38:32.914Z,1.80
2018-12-30T04:41:14.583Z,1.80
2018-12-30T04:43:56.088Z,1.80
2018-12-30T04:46:37.864Z,1.67
2018-12-30T04:49:18.295Z,1.80
2018-12-30T04:51:59.976Z,1.70
2018-12-30T04:54:41.263Z,1.60
2018-12-30T04:57:22.982Z,1.90
2018-12-30T05:00:05.015Z,1.67
2018-12-30T05:02:47.102Z,1.60
2018-12-30T05:05:29.251Z,1.77
2018-12-30T05:08:10.908Z,1.83
2018-12-30T05:10:52.563Z,1.70
2018-12-30T05:13:34.008Z,1.60
2018-12-30T05:16:18.127Z,2.30
2018-12-30T05:19:00.091Z,1.70
2018-12-30T05:21:41.692Z,1.97
2018-12-30T05:24:23.804Z,1.67
2018-12-30T05:27:05.339Z,1.77
2018-12-30T05:29:47.546Z,1.63
2018-12-30T05:32:30.087Z,1.50
2018-12-30T05:35:11.826Z,1.60
2018-12-30T05:37:53.456Z,1.60
2018-12-30T05:40:35.590Z,1.23
2018-12-30T05:43:16.068Z,1.50
2018-12-30T05:45:57.451Z,1.43
2018-12-30T05:48:38.791Z,1.50
2018-12-30T05:51:20.158Z,1.20
2018-12-30T05:54:02.182Z,1.60
2018-12-30T05:56:43.763Z,1.47
2018-12-30T05:59:25.819Z,1.90
2018-12-30T06:02:07.557Z,1.40
2018-12-30T06:04:50.284Z,2.00
2018-12-30T06:07:31.986Z,1.70
2018-12-30T06:10:13.898Z,1.43
2018-12-30T06:12:55.531Z,1.60
2018-12-30T06:15:37.524Z,1.43
2018-12-30T06:18:19.572Z,1.60
2018-12-30T06:21:01.490Z,1.53
2018-12-30T06:23:42.935Z,1.63
2018-12-30T06:26:25.481Z,1.50
2018-12-30T06:29:07.199Z,1.30
2018-12-30T06:31:48.863Z,1.40
2018-12-30T06:34:30.531Z,1.70
2018-12-30T06:37:12.355Z,1.60
2018-12-30T06:39:54.646Z,1.60
2018-12-30T06:42:36.823Z,1.30
2018-12-30T06:45:18.926Z,1.33
2018-12-30T06:48:00.371Z,1.77
2018-12-30T06:50:42.155Z,1.70
2018-12-30T06:53:23.829Z,1.60
2018-12-30T06:56:05.320Z,1.57
2018-12-30T06:58:47.540Z,1.77
2018-12-30T07:01:29.002Z,1.63
2018-12-30T07:04:10.375Z,1.63
2018-12-30T07:06:51.666Z,1.40
2018-12-30T07:09:33.802Z,1.10
2018-12-30T07:12:15.457Z,1.67
2018-12-30T07:14:57.019Z,1.60
2018-12-30T07:17:39.011Z,1.80
2018-12-30T07:20:20.455Z,1.40
2018-12-30T07:23:05.847Z,1.60
2018-12-30T07:25:44.687Z,1.87
2018-12-30T07:28:26.619Z,1.30
2018-12-30T07:31:08.578Z,1.70
2018-12-30T07:33:50.307Z,1.57
2018-12-30T07:36:32.018Z,1.70
2018-12-30T07:39:13.546Z,1.50
2018-12-30T07:41:55.488Z,1.43
2018-12-30T07:44:36.922Z,1.53
2018-12-30T07:47:19.136Z,1.47
2018-12-30T07:50:00.454Z,1.40
2018-12-30T07:52:42.663Z,1.70
2018-12-30T07:55:24.118Z,1.40
2018-12-30T07:58:06.264Z,1.70
2018-12-30T08:00:47.818Z,1.60
2018-12-30T08:03:30.559Z,1.57
2018-12-30T08:06:12.291Z,1.40
2018-12-30T08:08:52.458Z,1.80
2018-12-30T08:11:34.114Z,1.43
2018-12-30T08:14:14.843Z,1.50
2018-12-30T08:16:56.508Z,1.50
2018-12-30T08:19:38.046Z,1.23
2018-12-30T08:22:19.423Z,1.77
2018-12-30T08:25:00.855Z,1.50
2018-12-30T08:27:42.267Z,1.73
2018-12-30T08:30:23.884Z,1.40
2018-12-30T08:33:05.592Z,1.63
2018-12-30T08:35:47.803Z,1.70
2018-12-30T08:38:30.043Z,1.50
2018-12-30T08:41:11.766Z,1.60
2018-12-30T08:43:53.328Z,1.43
2018-12-30T08:46:35.466Z,1.80
2018-12-30T08:49:17.247Z,1.63
2018-12-30T08:51:58.798Z,1.53
2018-12-30T08:54:41.044Z,1.60
2018-12-30T08:57:23.094Z,1.50
2018-12-30T09:00:04.791Z,2.00
2018-12-30T09:02:46.662Z,1.63
2018-12-30T09:05:28.195Z,1.50
2018-12-30T09:08:10.226Z,1.40
2018-12-30T09:10:52.406Z,1.50
2018-12-30T09:13:34.019Z,1.53
2018-12-30T09:16:15.703Z,2.00
2018-12-30T09:18:57.706Z,1.37
2018-12-30T09:21:39.166Z,1.67
2018-12-30T09:24:20.601Z,1.60
2018-12-30T09:27:02.246Z,1.83
2018-12-30T09:29:44.552Z,1.70
2018-12-30T09:32:26.263Z,1.90
2018-12-30T09:35:07.847Z,1.57
2018-12-30T09:37:49.727Z,1.80
2018-12-30T09:40:31.578Z,1.50
2018-12-30T09:43:13.239Z,1.60
2018-12-30T09:45:54.820Z,1.50
2018-12-30T09:48:36.440Z,1.30
2018-12-30T09:51:18.600Z,1.40
2018-12-30T09:54:00.819Z,1.77
2018-12-30T09:56:42.215Z,1.37
2018-12-30T09:59:23.810Z,1.63
2018-12-30T10:02:05.354Z,1.50
2018-12-30T10:04:46.685Z,1.77
2018-12-30T10:07:28.195Z,2.13
2018-12-30T10:10:09.903Z,1.73
2018-12-30T10:12:51.508Z,1.60
2018-12-30T10:15:32.887Z,1.77
2018-12-30T10:18:14.424Z,1.83
2018-12-30T10:20:55.771Z,1.70
2018-12-30T10:23:37.448Z,1.70
2018-12-30T10:26:19.059Z,1.50
2018-12-30T10:29:00.703Z,2.07
2018-12-30T10:31:42.470Z,2.00
2018-12-30T10:34:24.300Z,1.60
2018-12-30T10:37:05.610Z,1.83
2018-12-30T10:39:47.181Z,1.73
2018-12-30T10:42:28.816Z,1.90
2018-12-30T10:45:11.054Z,1.80
2018-12-30T10:47:53.019Z,1.90
2018-12-30T10:50:34.827Z,2.07
2018-12-30T10:53:16.642Z,2.00
2018-12-30T10:55:59.216Z,1.73
2018-12-30T10:58:40.746Z,1.80
2018-12-30T11:01:22.927Z,1.90
2018-12-30T11:04:05.105Z,1.83
2018-12-30T11:06:46.450Z,1.57
2018-12-30T11:09:28.127Z,1.80
2018-12-30T11:12:09.727Z,2.43
2018-12-30T11:14:51.010Z,2.10
2018-12-30T11:17:32.874Z,2.00
2018-12-30T11:20:14.923Z,1.80
2018-12-30T11:22:57.271Z,1.97
2018-12-30T11:25:39.079Z,2.17
2018-12-30T11:28:22.167Z,2.30
2018-12-30T11:31:03.635Z,1.93
2018-12-30T11:33:45.247Z,1.90
2018-12-30T11:36:26.691Z,1.80
2018-12-30T11:39:08.983Z,2.17
2018-12-30T11:41:50.359Z,2.10
2018-12-30T11:44:32.230Z,2.50
2018-12-30T11:47:14.215Z,2.10
2018-12-30T11:49:56.262Z,2.00
2018-12-30T11:52:39.063Z,1.83
2018-12-30T11:55:20.567Z,2.20
2018-12-30T11:58:02.595Z,2.57
2018-12-30T12:00:44.568Z,2.17
2018-12-30T12:03:26.668Z,2.20
2018-12-30T12:06:08.399Z,2.20
2018-12-30T12:08:49.802Z,2.40
2018-12-30T12:11:31.751Z,2.40
2018-12-30T12:14:13.210Z,2.17
2018-12-30T12:16:54.727Z,2.37
2018-12-30T12:19:36.502Z,2.70
2018-12-30T12:22:18.383Z,1.93
2018-12-30T12:24:59.904Z,2.60
2018-12-30T12:27:41.323Z,2.10
2018-12-30T12:30:24.803Z,2.30
2018-12-30T12:33:06.638Z,2.60
2018-12-30T12:35:48.686Z,2.60
2018-12-30T12:38:30.423Z,2.07
2018-12-30T12:41:12.064Z,2.50
2018-12-30T12:43:53.788Z,2.27
2018-12-30T12:46:35.218Z,2.30
2018-12-30T12:49:16.799Z,3.07
2018-12-30T12:51:59.111Z,2.27
2018-12-30T12:54:40.822Z,2.40
2018-12-30T12:57:22.206Z,2.30
2018-12-30T13:00:04.599Z,2.53
2018-12-30T13:02:46.239Z,2.40
2018-12-30T13:05:28.877Z,2.40
2018-12-30T13:08:10.584Z,2.30
2018-12-30T13:10:51.999Z,2.80
2018-12-30T13:13:34.095Z,2.60
2018-12-30T13:16:16.003Z,2.63
2018-12-30T13:18:58.240Z,2.70
2018-12-30T13:21:39.619Z,2.60
2018-12-30T13:24:21.191Z,2.87
2018-12-30T13:27:02.990Z,2.60
2018-12-30T13:29:44.631Z,2.43
2018-12-30T13:32:26.726Z,2.37
2018-12-30T13:35:08.219Z,2.70
2018-12-30T13:37:50.351Z,2.40
2018-12-30T13:40:32.496Z,2.60
2018-12-30T13:43:14.266Z,2.77
2018-12-30T13:45:55.749Z,2.70
2018-12-30T13:48:37.148Z,2.53
2018-12-30T13:51:18.923Z,2.50
2018-12-30T13:53:59.855Z,2.70
2018-12-30T13:56:41.388Z,2.83
2018-12-30T13:59:23.421Z,2.77
2018-12-30T14:02:05.619Z,2.40
2018-12-30T14:04:47.603Z,2.67
2018-12-30T14:07:29.319Z,2.30
2018-12-30T14:10:11.209Z,2.23
2018-12-30T14:12:53.362Z,2.80
2018-12-30T14:15:34.943Z,2.23
2018-12-30T14:18:16.531Z,2.40
2018-12-30T14:20:58.876Z,2.20
2018-12-30T14:23:40.267Z,2.03
2018-12-30T14:26:22.474Z,2.10
2018-12-30T14:29:03.831Z,2.07
2018-12-30T14:31:46.264Z,2.10
2018-12-30T14:34:28.400Z,2.50
2018-12-30T14:37:10.539Z,2.03
2018-12-30T14:39:52.552Z,2.33
2018-12-30T14:42:35.107Z,2.80
2018-12-30T14:45:16.534Z,2.13
2018-12-30T14:47:58.735Z,2.10
2018-12-30T14:50:40.295Z,2.10
2018-12-30T14:53:22.128Z,2.03
2018-12-30T14:56:03.923Z,2.27
2018-12-30T14:58:44.599Z,2.30
2018-12-30T15:01:26.487Z,2.37
2018-12-30T15:04:08.541Z,1.80
2018-12-30T15:06:49.847Z,2.20
2018-12-30T15:09:35.817Z,2.00
2018-12-30T15:12:15.878Z,2.10
2018-12-30T15:14:56.886Z,2.20
2018-12-30T15:17:36.900Z,2.20
2018-12-30T15:20:18.581Z,2.13
2018-12-30T15:23:00.306Z,2.13
2018-12-30T15:25:41.983Z,2.00
2018-12-30T15:28:23.251Z,2.17
2018-12-30T15:31:04.907Z,2.40
2018-12-30T15:33:47.110Z,2.40
2018-12-30T15:36:28.499Z,2.03
2018-12-30T15:39:10.688Z,2.00
2018-12-30T15:41:52.031Z,2.40
2018-12-30T15:44:34.227Z,2.10
2018-12-30T15:47:16.154Z,2.40
2018-12-30T15:49:57.952Z,1.93
2018-12-30T15:52:39.459Z,2.23
2018-12-30T15:55:20.832Z,2.10
2018-12-30T15:58:02.535Z,2.20
2018-12-30T16:00:44.395Z,1.97
2018-12-30T16:03:26.071Z,2.10
2018-12-30T16:06:07.608Z,2.00
2018-12-30T16:08:49.030Z,2.20
2018-12-30T16:11:31.099Z,2.17
2018-12-30T16:14:12.855Z,2.00
2018-12-30T16:16:54.399Z,1.90
2018-12-30T16:19:36.282Z,1.87
2018-12-30T16:22:18.311Z,2.17
2018-12-30T16:25:00.547Z,1.90
2018-12-30T16:27:42.595Z,1.97
2018-12-30T16:30:24.607Z,2.00
2018-12-30T16:33:06.979Z,2.13
2018-12-30T16:35:48.882Z,2.10
2018-12-30T16:38:30.475Z,2.27
2018-12-30T16:41:11.795Z,2.30
2018-12-30T16:43:52.612Z,1.87
2018-12-30T16:46:34.263Z,1.97
2018-12-30T16:49:15.991Z,2.00
2018-12-30T16:51:58.074Z,2.30
2018-12-30T16:54:40.279Z,2.33
2018-12-30T16:57:21.839Z,2.00
2018-12-30T17:00:03.618Z,2.20
2018-12-30T17:02:45.143Z,1.97
2018-12-30T17:05:26.566Z,1.83
2018-12-30T17:08:08.370Z,1.67
2018-12-30T17:10:49.759Z,1.57
2018-12-30T17:13:30.471Z,2.03
2018-12-30T17:16:11.823Z,2.20
2018-12-30T17:18:56.052Z,1.93
2018-12-30T17:21:37.523Z,2.13
2018-12-30T17:24:19.290Z,1.90
2018-12-30T17:27:01.119Z,2.10
2018-12-30T17:29:42.771Z,2.33
2018-12-30T17:32:25.163Z,1.90
2018-12-30T17:35:07.331Z,1.80
2018-12-30T17:37:49.090Z,1.93
2018-12-30T17:40:38.246Z,2.20
2018-12-30T17:43:15.215Z,2.03
2018-12-30T17:45:56.235Z,2.30
2018-12-30T17:48:37.664Z,1.70
2018-12-30T17:51:19.223Z,2.03
2018-12-30T17:54:00.855Z,2.20
2018-12-30T17:56:42.723Z,2.63
2018-12-30T17:59:24.467Z,1.90
2018-12-30T18:02:05.879Z,1.93
2018-12-30T18:04:47.291Z,2.10
2018-12-30T18:07:29.560Z,2.20
2018-12-30T18:10:11.037Z,2.07
2018-12-30T18:12:52.383Z,2.20
2018-12-30T18:15:34.004Z,2.20
2018-12-30T18:18:16.226Z,1.87
2018-12-30T18:20:57.970Z,2.27
2018-12-30T18:23:40.256Z,2.20
2018-12-30T18:26:22.319Z,2.40
2018-12-30T18:29:04.031Z,2.03
2018-12-30T18:31:46.003Z,2.20
2018-12-30T18:34:28.235Z,1.83
2018-12-30T18:37:10.035Z,2.33
2018-12-30T18:39:51.446Z,2.23
2018-12-30T18:42:33.311Z,2.50
2018-12-30T18:45:15.227Z,2.30
2018-12-30T18:47:56.786Z,2.37
2018-12-30T18:50:38.839Z,2.27
2018-12-30T18:53:21.332Z,2.43
2018-12-30T18:56:06.849Z,2.30
2018-12-30T18:58:47.179Z,2.50
2018-12-30T19:01:29.380Z,2.30
2018-12-30T19:04:11.114Z,2.07
2018-12-30T19:06:52.594Z,2.83
2018-12-30T19:09:34.174Z,2.00
2018-12-30T19:12:15.821Z,2.33
2018-12-30T19:14:57.115Z,2.57
2018-12-30T19:17:39.234Z,2.20
2018-12-30T19:20:21.455Z,2.43
2018-12-30T19:23:01.810Z,2.10
2018-12-30T19:25:44.087Z,2.30
2018-12-30T19:28:26.295Z,2.40
2018-12-30T19:31:07.690Z,2.20
2018-12-30T19:33:49.827Z,2.37
2018-12-30T19:36:31.399Z,2.40
2018-12-30T19:39:12.825Z,2.40
2018-12-30T19:41:53.139Z,2.10
2018-12-30T19:44:35.251Z,2.60
2018-12-30T19:47:16.758Z,2.40
2018-12-30T19:49:58.335Z,2.10
2018-12-30T19:52:39.715Z,2.60
2018-12-30T19:55:21.290Z,2.60
2018-12-30T19:58:02.635Z,2.00
2018-12-30T20:00:44.919Z,2.30
2018-12-30T20:03:26.447Z,2.30
2018-12-30T20:06:09.063Z,2.37
2018-12-30T20:08:51.530Z,2.30
2018-12-30T20:11:33.003Z,2.30
2018-12-30T20:14:15.530Z,2.57
2018-12-30T20:16:57.520Z,2.30
2018-12-30T20:19:39.087Z,2.47
2018-12-30T20:22:20.495Z,2.40
2018-12-30T20:25:02.077Z,2.27
2018-12-30T20:27:43.613Z,2.00
2018-12-30T20:30:25.079Z,2.57
2018-12-30T20:33:06.967Z,2.43
2018-12-30T20:35:48.754Z,2.63
2018-12-30T20:38:30.234Z,2.13
2018-12-30T20:41:11.699Z,2.10
2018-12-30T20:43:53.475Z,2.43
2018-12-30T20:46:34.979Z,2.00
2018-12-30T20:49:17.043Z,2.00
2018-12-30T20:51:58.435Z,2.30
2018-12-30T20:54:40.434Z,2.70
2018-12-30T20:57:21.888Z,2.27
2018-12-30T21:00:04.332Z,2.43
2018-12-30T21:02:45.798Z,2.33
2018-12-30T21:05:27.980Z,2.10
2018-12-30T21:08:09.661Z,2.40
2018-12-30T21:10:51.815Z,2.30
2018-12-30T21:13:34.078Z,2.00
2018-12-30T21:16:15.446Z,1.97
2018-12-30T21:18:57.059Z,2.40
2018-12-30T21:21:38.343Z,2.50
2018-12-30T21:24:20.666Z,2.30
2018-12-30T21:27:02.993Z,2.10
2018-12-30T21:29:44.491Z,2.30
2018-12-30T21:32:26.493Z,2.30
2018-12-30T21:35:07.288Z,2.43
2018-12-30T21:37:49.071Z,2.33
2018-12-30T21:40:30.491Z,2.40
2018-12-30T21:43:12.466Z,2.80
2018-12-30T21:45:53.867Z,2.20
2018-12-30T21:48:35.698Z,2.13
2018-12-30T21:51:17.538Z,2.50
2018-12-30T21:53:59.788Z,2.27
2018-12-30T21:56:41.834Z,2.30
2018-12-30T21:59:23.272Z,2.70
2018-12-30T22:02:04.797Z,2.40
2018-12-30T22:04:47.174Z,2.53
2018-12-30T22:07:28.962Z,2.30
2018-12-30T22:10:17.238Z,2.33
2018-12-30T22:12:54.807Z,2.20
2018-12-30T22:15:36.795Z,2.27
2018-12-30T22:18:18.695Z,2.40
2018-12-30T22:21:00.239Z,2.10
2018-12-30T22:23:42.309Z,2.40
2018-12-30T22:26:23.723Z,2.20
2018-12-30T22:29:05.281Z,2.30
2018-12-30T22:31:47.367Z,2.57
2018-12-30T22:34:28.847Z,2.30
2018-12-30T22:37:10.255Z,2.47
2018-12-30T22:39:51.707Z,2.30
2018-12-30T22:42:34.723Z,2.30
2018-12-30T22:45:16.332Z,2.43
2018-12-30T22:47:58.443Z,2.23
2018-12-30T22:50:39.896Z,2.20
2018-12-30T22:53:21.238Z,2.60
2018-12-30T22:56:02.726Z,2.50
2018-12-30T22:58:44.924Z,2.37
2018-12-30T23:01:29.343Z,2.73
2018-12-30T23:04:10.487Z,2.40
2018-12-30T23:06:52.230Z,2.67
2018-12-30T23:09:34.042Z,2.40
2018-12-30T23:12:16.260Z,2.43
2018-12-30T23:14:57.720Z,2.20
2018-12-30T23:17:39.162Z,2.60
2018-12-30T23:20:21.026Z,2.40
2018-12-30T23:23:02.683Z,2.63
2018-12-30T23:25:45.924Z,2.90
2018-12-30T23:28:27.215Z,2.77
2018-12-30T23:31:09.434Z,2.73
2018-12-30T23:33:51.583Z,2.50
2018-12-30T23:36:32.902Z,2.53
2018-12-30T23:39:14.310Z,2.70
2018-12-30T23:41:56.544Z,2.70
2018-12-30T23:44:38.011Z,2.43
2018-12-30T23:47:19.371Z,2.23
2018-12-30T23:50:00.739Z,2.30
2018-12-30T23:52:42.613Z,2.60
2018-12-30T23:55:24.402Z,2.60
2018-12-30T23:58:06.085Z,2.50
